Time;durP1;ratioP1;P1;durP2;ratioP2;P2;SDS_P1;SDS_P2;PMS_P1;PMS_P2;Temp;Humidity;BMP_temperature;BMP_pressure;BME280_temperature;BME280_humidity;BME280_pressure;Samples;Min_cycle;Max_cycle;Signal;HPM_P1;HPM_P2
2022/12/15 00:38:42;;;;;;;9.98;6.43;;;20.20;37.70;;;;;;5069417;28;20040;-64
2022/12/15 00:41:11;;;;;;;11.07;7.05;;;20.20;37.70;;;;;;5055080;28;20053;-64
2022/12/15 00:43:38;;;;;;;9.43;6.78;;;20.20;37.70;;;;;;5069405;28;20048;-65
2022/12/15 00:48:53;;;;;;;8.88;6.07;;;20.20;37.70;;;;;;5069847;28;20094;-64
2022/12/15 00:51:20;;;;;;;10.20;6.10;;;20.20;37.70;;;;;;5065398;28;20048;-64
2022/12/15 01:21:49;;;;;;;8.35;6.10;;;20.10;37.70;;;;;;5068921;28;20061;-64
2022/12/15 01:24:16;;;;;;;8.80;5.82;;;20.10;37.70;;;;;;5069153;28;20052;-64
2022/12/15 01:26:43;;;;;;;10.57;7.38;;;20.10;37.60;;;;;;5064185;28;20055;-65
2022/12/15 01:29:10;;;;;;;7.53;5.93;;;20.10;37.60;;;;;;5068795;28;20512;-63
2022/12/15 01:31:37;;;;;;;8.85;5.93;;;20.10;37.60;;;;;;5069260;28;20055;-64
2022/12/15 01:34:04;;;;;;;7.90;5.70;;;20.10;37.60;;;;;;5068784;28;20048;-64
2022/12/15 01:36:31;;;;;;;8.77;6.18;;;20.10;37.60;;;;;;5069164;28;20405;-64
2022/12/15 01:38:59;;;;;;;10.30;6.25;;;20.10;37.60;;;;;;5068727;28;20386;-64
2022/12/15 01:41:26;;;;;;;7.97;5.70;;;20.10;37.60;;;;;;5068735;28;20051;-64
2022/12/15 01:43:53;;;;;;;10.15;6.13;;;20.10;37.60;;;;;;5068845;28;20047;-64
2022/12/15 01:46:23;;;;;;;7.65;5.82;;;20.10;37.60;;;;;;5068229;28;20056;-64
2022/12/15 01:49:10;;;;;;;8.00;5.80;;;20.10;37.60;;;;;;5068681;28;20044;-64
2022/12/15 01:51:41;;;;;;;8.38;5.93;;;20.10;37.60;;;;;;5068775;28;20048;-64
2022/12/15 01:54:19;;;;;;;8.90;5.70;;;20.10;37.60;;;;;;5068581;28;20131;-64
2022/12/15 01:56:50;;;;;;;9.50;6.40;;;20.10;37.70;;;;;;5068289;28;20461;-64
2022/12/15 01:59:21;;;;;;;8.20;5.72;;;20.10;37.70;;;;;;5063802;28;20044;-64
2022/12/15 02:01:49;;;;;;;7.80;5.70;;;20.10;37.70;;;;;;5068432;28;20450;-66
2022/12/15 02:04:20;;;;;;;8.57;5.38;;;20.10;37.70;;;;;;5068365;28;20078;-64
2022/12/15 02:06:47;;;;;;;7.10;5.38;;;20.10;37.70;;;;;;5068056;28;20048;-64
2022/12/15 02:09:16;;;;;;;7.20;5.35;;;20.10;37.70;;;;;;5068092;28;20056;-64
2022/12/15 02:12:21;;;;;;;7.22;5.63;;;20.10;37.60;;;;;;5068476;28;20044;-64
2022/12/15 02:15:18;;;;;;;9.57;6.30;;;20.10;37.60;;;;;;5068257;28;20053;-63
2022/12/15 02:18:18;;;;;;;8.50;5.65;;;20.10;37.60;;;;;;5068224;28;20452;-64
2022/12/15 02:20:56;;;;;;;;;;;20.10;37.60;;;;;;5053898;28;20051;-64
2022/12/15 02:23:51;;;;;;;7.82;5.75;;;20.10;37.60;;;;;;5068135;28;19936;-64
2022/12/15 02:26:58;;;;;;;7.25;5.35;;;20.10;37.60;;;;;;5067787;28;20489;-64
2022/12/15 02:29:53;;;;;;;6.60;5.35;;;20.10;37.60;;;;;;5067498;28;20049;-64
2022/12/15 02:32:26;;;;;;;7.35;5.32;;;20.10;37.60;;;;;;5049921;28;20136;-64
2022/12/15 02:35:02;;;;;;;8.05;5.80;;;20.10;37.60;;;;;;5063886;28;20040;-64
2022/12/15 02:37:33;;;;;;;7.57;5.63;;;20.10;38.20;;;;;;5068482;28;20059;-64
2022/12/15 02:40:01;;;;;;;6.00;5.20;;;20.10;37.60;;;;;;5067606;28;20044;-64
2022/12/15 02:42:31;;;;;;;9.32;6.03;;;20.10;37.60;;;;;;5067853;28;20070;-64
2022/12/15 02:45:07;;;;;;;7.78;5.35;;;20.10;37.60;;;;;;5067336;28;20067;-64
2022/12/15 02:48:03;;;;;;;7.05;5.70;;;20.10;37.60;;;;;;5067693;28;20044;-64
2022/12/15 02:50:51;;;;;;;7.03;5.30;;;20.10;37.60;;;;;;5067702;28;20098;-64
2022/12/15 02:53:57;;;;;;;7.88;5.60;;;20.10;37.60;;;;;;5067644;28;20045;-64
2022/12/15 02:56:43;;;;;;;6.20;4.85;;;20.00;37.60;;;;;;5061870;28;20422;-64
2022/12/15 02:59:20;;;;;;;6.22;4.78;;;20.00;37.60;;;;;;5067820;28;20551;-64
2022/12/15 03:01:56;;;;;;;6.40;4.88;;;20.00;37.60;;;;;;5067646;28;20070;-64
2022/12/15 03:04:25;;;;;;;7.25;5.05;;;20.00;37.50;;;;;;5047775;28;20045;-64
2022/12/15 03:06:58;;;;;;;6.95;5.35;;;20.00;37.50;;;;;;5043160;28;20067;-64
2022/12/15 03:09:27;;;;;;;6.50;4.60;;;20.00;37.50;;;;;;5062020;28;20514;-63
2022/12/15 03:11:54;;;;;;;6.13;4.93;;;20.00;37.50;;;;;;5067113;28;20087;-63
2022/12/15 03:14:24;;;;;;;6.18;4.65;;;20.00;37.60;;;;;;5066172;28;20051;-64
2022/12/15 03:16:52;;;;;;;6.15;4.95;;;20.00;37.60;;;;;;5067622;28;20135;-63
2022/12/15 03:19:19;;;;;;;5.50;4.47;;;20.00;37.60;;;;;;5066815;28;20106;-64
2022/12/15 03:21:46;;;;;;;7.18;5.30;;;20.00;37.60;;;;;;5067111;28;20511;-64
2022/12/15 03:24:13;;;;;;;6.60;4.97;;;20.00;37.60;;;;;;5067689;28;20048;-64
2022/12/15 03:26:40;;;;;;;5.65;4.60;;;20.00;37.60;;;;;;5067247;28;20052;-64
2022/12/15 03:29:07;;;;;;;6.43;4.97;;;20.00;37.60;;;;;;5067626;28;20051;-64
2022/12/15 03:31:35;;;;;;;6.78;5.13;;;20.00;37.60;;;;;;5067716;28;20504;-64
2022/12/15 03:34:02;;;;;;;6.40;5.00;;;20.00;37.60;;;;;;5067321;28;20467;-63
2022/12/15 03:36:29;;;;;;;7.45;4.88;;;20.00;37.60;;;;;;5067488;28;20508;-64
2022/12/15 03:38:56;;;;;;;7.10;4.93;;;20.00;37.60;;;;;;5067804;28;20056;-64
2022/12/15 03:41:23;;;;;;;6.88;4.88;;;20.00;37.60;;;;;;5061036;28;20064;-64
2022/12/15 03:43:50;;;;;;;6.03;4.72;;;20.00;37.60;;;;;;5067291;28;20044;-64
2022/12/15 03:46:17;;;;;;;6.68;4.47;;;19.90;37.50;;;;;;5066719;28;20048;-64
2022/12/15 03:48:44;;;;;;;7.60;5.07;;;19.90;37.60;;;;;;5067640;28;20079;-64
2022/12/15 03:51:11;;;;;;;6.07;4.82;;;19.90;37.60;;;;;;5066778;28;20497;-64
2022/12/15 03:53:38;;;;;;;6.43;5.15;;;19.90;37.60;;;;;;5034666;28;20403;-64
2022/12/15 03:56:05;;;;;;;5.43;4.40;;;20.00;37.60;;;;;;5070729;28;20045;-64
2022/12/15 03:58:33;;;;;;;6.88;5.03;;;20.00;37.60;;;;;;5071403;28;20064;-64
2022/12/15 04:01:11;;;;;;;6.40;4.82;;;19.90;37.60;;;;;;5069548;28;20045;-64
2022/12/15 04:03:38;;;;;;;7.03;5.63;;;19.90;37.60;;;;;;5070494;28;20186;-64
2022/12/15 04:06:06;;;;;;;6.63;4.93;;;19.90;37.60;;;;;;5070847;28;20048;-64
2022/12/15 04:08:33;;;;;;;8.07;5.57;;;19.90;37.50;;;;;;5069437;28;20041;-64
2022/12/15 04:11:00;;;;;;;6.75;5.20;;;19.90;37.60;;;;;;5070502;28;20056;-64
2022/12/15 04:13:27;;;;;;;5.38;4.28;;;19.90;37.60;;;;;;5069352;28;20044;-64
2022/12/15 04:15:54;;;;;;;6.07;4.25;;;19.90;37.60;;;;;;5067122;28;20451;-64
2022/12/15 04:18:22;;;;;;;5.70;4.57;;;19.90;37.60;;;;;;5070732;28;20134;-64
2022/12/15 04:20:49;;;;;;;6.07;4.75;;;19.90;37.60;;;;;;5070663;28;20044;-64
2022/12/15 04:23:16;;;;;;;6.50;4.95;;;20.00;37.60;;;;;;5070401;28;20118;-64
2022/12/15 05:32:54;;;;;;;5.53;4.65;;;19.90;37.50;;;;;;5069126;28;20045;-64
2022/12/15 05:35:21;;;;;;;6.90;5.50;;;19.80;37.50;;;;;;5064758;28;20732;-64
2022/12/15 05:37:48;;;;;;;6.97;5.65;;;19.90;37.50;;;;;;5068703;28;20134;-64
2022/12/15 05:40:18;;;;;;;8.88;6.63;;;19.90;37.30;;;;;;5068184;28;20056;-64
2022/12/15 05:42:45;;;;;;;9.68;7.15;;;19.80;37.10;;;;;;5069346;28;20059;-64
2022/12/15 05:45:16;;;;;;;11.52;8.05;;;19.80;37.00;;;;;;5068317;28;20208;-64
2022/12/15 05:47:43;;;;;;;12.02;8.60;;;19.80;37.00;;;;;;5068638;28;20041;-64
2022/12/15 05:50:10;;;;;;;14.07;9.05;;;19.80;37.00;;;;;;5068023;28;20397;-64
2022/12/15 05:52:37;;;;;;;13.48;8.88;;;19.80;37.00;;;;;;5083896;28;20044;-64
2022/12/15 05:55:04;;;;;;;12.45;8.63;;;19.80;37.00;;;;;;5067031;28;20539;-64
2022/12/15 05:57:31;;;;;;;12.05;8.48;;;19.80;37.00;;;;;;5066727;28;20044;-64
2022/12/15 05:59:58;;;;;;;14.88;9.93;;;19.80;36.90;;;;;;5065904;28;20238;-64
2022/12/15 06:02:27;;;;;;;14.38;9.25;;;19.90;36.90;;;;;;5066275;28;20531;-64
2022/12/15 06:04:55;;;;;;;15.13;10.38;;;19.90;36.90;;;;;;5067894;28;20080;-64
2022/12/15 06:07:22;;;;;;;15.85;10.27;;;19.90;36.80;;;;;;5067547;28;20057;-64
2022/12/15 06:09:49;;;;;;;17.73;10.43;;;19.90;36.80;;;;;;5066635;28;20041;-64
2022/12/15 06:12:16;;;;;;;13.32;9.85;;;20.00;36.70;;;;;;5068019;28;20052;-64
2022/12/15 06:14:43;;;;;;;14.88;10.05;;;20.00;36.60;;;;;;5066410;28;20508;-64
2022/12/15 06:17:10;;;;;;;16.70;10.25;;;20.00;36.50;;;;;;5064527;28;20071;-66
2022/12/15 06:19:37;;;;;;;17.40;11.85;;;20.10;36.60;;;;;;5050564;28;20048;-68
2022/12/15 06:22:04;;;;;;;14.38;10.05;;;20.10;36.50;;;;;;5060889;28;20051;-67
2022/12/15 06:24:31;;;;;;;16.13;10.68;;;20.10;36.20;;;;;;5070291;28;20048;-68
2022/12/15 06:26:59;;;;;;;17.05;10.60;;;20.20;36.00;;;;;;5063816;28;20053;-68
2022/12/15 06:29:26;;;;;;;14.80;10.30;;;20.20;35.80;;;;;;5065669;28;20045;-64
2022/12/15 06:31:53;;;;;;;16.35;10.50;;;20.20;36.30;;;;;;5045951;28;20052;-65
2022/12/15 06:34:20;;;;;;;14.45;10.68;;;20.20;35.60;;;;;;5065941;28;20083;-66
2022/12/15 06:36:47;;;;;;;15.85;10.82;;;20.30;35.50;;;;;;5049834;28;20057;-66
2022/12/15 06:39:16;;;;;;;14.35;10.70;;;20.30;35.50;;;;;;5060238;28;20055;-65
2022/12/15 06:41:43;;;;;;;16.75;10.90;;;20.40;35.50;;;;;;5063811;28;20493;-66
2022/12/15 06:44:14;;;;;;;18.65;11.95;;;20.40;35.40;;;;;;5062245;28;20045;-63
2022/12/15 06:46:43;;;;;;;17.73;11.30;;;20.40;35.40;;;;;;5060806;28;20055;-64
2022/12/15 06:49:10;;;;;;;14.63;11.73;;;20.50;35.40;;;;;;5057274;28;20471;-66
2022/12/15 06:51:37;;;;;;;15.25;11.40;;;20.50;35.40;;;;;;5055935;28;20053;-64
2022/12/15 06:54:04;;;;;;;20.02;11.68;;;20.60;35.40;;;;;;5056769;28;20404;-67
2022/12/15 06:56:37;;;;;;;22.25;12.25;;;20.60;35.60;;;;;;5055226;28;20353;-66
2022/12/15 06:59:06;;;;;;;16.65;11.70;;;20.60;35.90;;;;;;5032711;28;20455;-67
2022/12/15 07:01:33;;;;;;;19.55;11.25;;;20.70;35.90;;;;;;5058166;28;20147;-64
2022/12/15 07:04:04;;;;;;;16.25;10.75;;;20.70;35.90;;;;;;5053691;28;20063;-65
2022/12/15 07:06:36;;;;;;;16.23;11.75;;;20.70;36.20;;;;;;5058340;28;20067;-62
2022/12/15 07:09:06;;;;;;;20.63;12.38;;;20.70;36.30;;;;;;5058604;28;20048;-61
2022/12/15 07:11:34;;;;;;;;;;;20.80;36.50;;;;;;5062942;28;20381;-63
2022/12/15 07:14:01;;;;;;;20.10;11.88;;;20.80;36.60;;;;;;5061063;28;19924;-64
2022/12/15 07:16:28;;;;;;;21.77;12.07;;;20.90;36.60;;;;;;5059392;28;20277;-65
2022/12/15 07:18:56;;;;;;;17.20;12.35;;;20.90;36.70;;;;;;5055242;28;20053;-65
2022/12/15 07:21:23;;;;;;;19.42;12.82;;;21.00;36.80;;;;;;5055569;28;20051;-62
2022/12/15 07:23:51;;;;;;;18.00;12.75;;;21.00;36.60;;;;;;5057146;28;20060;-63
2022/12/15 07:26:23;;;;;;;18.55;12.55;;;21.10;36.60;;;;;;5059255;28;20079;-68
2022/12/15 07:28:52;;;;;;;20.27;12.85;;;21.10;37.00;;;;;;5064407;28;20465;-65
2022/12/15 07:31:20;;;;;;;17.70;12.68;;;21.20;36.80;;;;;;5064646;28;20059;-66
2022/12/15 07:33:48;;;;;;;17.58;12.70;;;21.20;36.70;;;;;;5040514;28;20044;-65
2022/12/15 07:36:15;;;;;;;20.33;12.52;;;21.20;36.60;;;;;;5063751;28;20056;-64
2022/12/15 07:38:44;;;;;;;17.95;12.57;;;21.30;36.60;;;;;;5049671;28;20173;-63
2022/12/15 07:41:17;;;;;;;23.35;13.38;;;21.30;36.60;;;;;;5065255;28;20565;-62
2022/12/15 07:43:45;;;;;;;19.27;13.60;;;21.30;36.50;;;;;;5062106;28;20071;-67
2022/12/15 07:46:13;;;;;;;20.48;12.52;;;21.40;36.40;;;;;;5061465;28;20052;-65
2022/12/15 07:48:41;;;;;;;20.35;12.98;;;21.40;36.30;;;;;;5062503;28;20064;-69
2022/12/15 07:51:09;;;;;;;18.92;12.90;;;21.40;36.10;;;;;;5078095;28;20121;-68
2022/12/15 07:53:46;;;;;;;20.75;13.00;;;21.50;36.00;;;;;;5063606;28;20040;-70
2022/12/15 07:56:14;;;;;;;21.30;14.00;;;21.50;35.90;;;;;;5061236;28;20274;-66
2022/12/15 07:58:41;;;;;;;18.60;12.73;;;21.50;35.80;;;;;;5064394;28;20066;-63
2022/12/15 08:01:12;;;;;;;22.40;12.98;;;21.50;35.70;;;;;;5061090;28;20044;-63
2022/12/15 08:03:40;;;;;;;;;;;21.60;36.10;;;;;;5062762;28;20052;-62
2022/12/15 08:06:10;;;;;;;17.33;12.35;;;21.60;36.30;;;;;;5078631;28;19951;-63
2022/12/15 08:08:38;;;;;;;20.15;13.48;;;21.60;36.20;;;;;;5062742;28;20040;-67
2022/12/15 08:11:06;;;;;;;17.45;12.25;;;21.70;36.30;;;;;;5061933;28;20083;-72
2022/12/15 08:13:34;;;;;;;20.80;13.50;;;21.70;36.40;;;;;;5057885;28;20541;-67
2022/12/15 08:16:21;;;;;;;22.23;13.50;;;21.70;36.20;;;;;;5060391;28;20044;-66
2022/12/15 08:18:48;;;;;;;25.45;14.57;;;21.80;36.20;;;;;;5061074;28;20420;-65
2022/12/15 08:21:16;;;;;;;20.92;13.93;;;21.80;36.00;;;;;;5063720;28;20489;-66
2022/12/15 08:23:44;;;;;;;20.67;13.93;;;21.80;36.50;;;;;;5057086;28;20048;-64
2022/12/15 08:26:14;;;;;;;24.95;15.07;;;21.90;36.10;;;;;;5063210;28;20428;-64
2022/12/15 08:28:42;;;;;;;19.95;13.48;;;21.90;36.10;;;;;;5057064;28;20059;-67
2022/12/15 08:31:13;;;;;;;20.42;14.30;;;21.90;36.10;;;;;;5060295;28;20148;-70
2022/12/15 08:33:42;;;;;;;19.88;13.05;;;22.00;35.90;;;;;;5060569;28;20143;-66
2022/12/15 08:36:12;;;;;;;21.40;13.85;;;22.00;36.00;;;;;;5061445;28;20139;-66
2022/12/15 08:38:41;;;;;;;20.60;13.82;;;22.10;36.20;;;;;;5042059;28;20048;-65
2022/12/15 08:41:14;;;;;;;20.88;13.13;;;22.10;36.30;;;;;;5046330;28;20049;-64
2022/12/15 08:43:42;;;;;;;25.50;13.25;;;22.10;36.40;;;;;;5055115;28;20503;-66
2022/12/15 08:46:16;;;;;;;21.33;13.63;;;22.20;36.40;;;;;;5059287;28;20087;-67
2022/12/15 08:48:44;;;;;;;21.58;13.98;;;22.20;36.30;;;;;;5060371;28;20052;-70
2022/12/15 08:51:12;;;;;;;20.55;13.02;;;22.20;36.20;;;;;;5057473;28;20104;-66
2022/12/15 08:53:39;;;;;;;19.27;13.30;;;22.30;36.20;;;;;;5058204;28;20661;-66
2022/12/15 08:56:12;;;;;;;24.50;15.27;;;22.30;36.20;;;;;;5044179;28;20049;-65
2022/12/15 08:58:39;;;;;;;22.23;13.90;;;22.30;36.00;;;;;;5063284;28;20051;-67
2022/12/15 09:01:10;;;;;;;24.25;14.27;;;22.40;35.80;;;;;;5060796;28;20084;-68
2022/12/15 09:03:43;;;;;;;22.63;14.10;;;22.40;35.60;;;;;;5058421;28;20151;-67
2022/12/15 09:06:18;;;;;;;23.15;13.57;;;22.50;35.50;;;;;;5059370;28;20063;-68
2022/12/15 09:08:45;;;;;;;21.88;14.25;;;22.50;35.30;;;;;;5060784;28;21214;-70
2022/12/15 09:11:16;;;;;;;21.67;15.23;;;22.50;35.10;;;;;;5062180;28;20063;-69
2022/12/15 09:13:44;;;;;;;20.90;14.00;;;22.50;35.00;;;;;;5061602;28;20052;-69
2022/12/15 09:16:14;;;;;;;25.02;14.05;;;22.50;34.90;;;;;;5060133;28;20040;-68
2022/12/15 09:18:42;;;;;;;;;;;22.50;34.80;;;;;;5061887;28;20182;-69
2022/12/15 09:21:10;;;;;;;20.02;14.00;;;22.50;34.70;;;;;;5061009;28;20719;-68
2022/12/15 09:23:38;;;;;;;27.55;14.50;;;22.50;34.70;;;;;;5058847;28;20131;-68
2022/12/15 09:26:11;;;;;;;21.25;14.20;;;22.50;35.00;;;;;;5055237;28;20370;-70
2022/12/15 09:28:39;;;;;;;22.35;13.90;;;22.50;35.30;;;;;;5061013;28;20698;-68
2022/12/15 09:31:10;;;;;;;23.27;14.88;;;22.50;35.40;;;;;;5060763;28;20063;-67
2022/12/15 09:33:38;;;;;;;24.02;14.27;;;22.50;35.50;;;;;;5058311;28;20044;-66
2022/12/15 09:36:06;;;;;;;37.83;15.23;;;22.60;35.50;;;;;;5057905;28;20464;-66
2022/12/15 09:38:36;;;;;;;26.70;15.60;;;22.60;35.50;;;;;;5046049;28;20045;-66
2022/12/15 09:41:22;;;;;;;;;;;22.70;36.00;;;;;;5056155;28;20048;-64
2022/12/15 09:44:12;;;;;;;23.05;13.77;;;22.70;35.30;;;;;;5062451;28;19928;-62
2022/12/15 09:47:11;;;;;;;27.67;16.45;;;22.70;35.50;;;;;;5055536;28;20561;-65
2022/12/15 09:50:01;;;;;;;22.67;15.00;;;22.70;35.50;;;;;;5059415;28;20048;-64
2022/12/15 09:52:50;;;;;;;29.15;16.08;;;22.70;35.50;;;;;;5062464;28;20138;-63
2022/12/15 09:55:23;;;;;;;24.95;15.23;;;22.80;35.60;;;;;;5058858;28;20163;-64
2022/12/15 09:58:07;;;;;;;27.10;15.57;;;22.80;35.70;;;;;;5061138;28;20040;-65
2022/12/15 10:01:00;;;;;;;31.20;15.38;;;22.80;35.70;;;;;;5058610;28;20101;-64
2022/12/15 10:03:59;;;;;;;27.35;15.48;;;22.80;35.60;;;;;;5057013;28;20500;-66
2022/12/15 10:06:36;;;;;;;23.75;14.95;;;22.80;35.50;;;;;;5059119;28;20049;-65
2022/12/15 10:09:26;;;;;;;27.75;15.88;;;22.90;35.50;;;;;;5059473;28;20296;-67
2022/12/15 10:12:02;;;;;;;29.13;17.70;;;22.90;35.40;;;;;;5057521;28;20054;-68
2022/12/15 10:14:42;;;;;;;25.35;15.05;;;22.90;35.00;;;;;;5042697;28;20079;-65
2022/12/15 10:17:50;;;;;;;27.42;16.60;;;22.90;34.80;;;;;;5043786;28;20066;-68
2022/12/15 10:20:20;;;;;;;30.67;17.70;;;22.90;34.60;;;;;;5061657;28;20086;-66
2022/12/15 10:22:47;;;;;;;32.35;16.38;;;23.00;34.50;;;;;;5053379;28;20050;-66
2022/12/15 10:25:25;;;;;;;29.38;16.88;;;23.00;34.50;;;;;;5060451;28;20408;-66
2022/12/15 10:28:29;;;;;;;24.67;15.73;;;23.00;34.40;;;;;;5058828;28;20151;-65
2022/12/15 10:31:13;;;;;;;25.83;16.40;;;23.00;34.50;;;;;;5062147;28;20053;-62
2022/12/15 10:33:44;;;;;;;29.25;15.68;;;23.00;34.60;;;;;;5025504;28;20051;-67
2022/12/15 10:36:16;;;;;;;25.92;15.60;;;23.00;34.90;;;;;;5041911;28;20040;-66
2022/12/15 10:38:46;;;;;;;27.08;15.20;;;23.00;35.00;;;;;;5055211;28;20086;-62
2022/12/15 10:41:33;;;;;;;;;;;23.00;35.20;;;;;;5040883;28;21036;-63
2022/12/15 10:44:01;;;;;;;25.40;14.80;;;23.00;35.30;;;;;;5059534;28;19967;-63
2022/12/15 10:46:30;;;;;;;29.50;17.17;;;23.00;35.30;;;;;;5058892;28;20054;-61
2022/12/15 10:49:22;;;;;;;28.25;17.42;;;23.10;35.30;;;;;;5043093;28;20053;-61
2022/12/15 10:51:56;;;;;;;27.95;17.05;;;23.10;35.40;;;;;;5056368;28;20049;-62
2022/12/15 10:54:29;;;;;;;26.48;15.80;;;23.10;35.40;;;;;;5059700;28;20059;-61
2022/12/15 10:56:58;;;;;;;24.90;15.98;;;23.10;35.30;;;;;;5057720;28;20052;-63
2022/12/15 10:59:36;;;;;;;26.42;16.27;;;23.10;35.30;;;;;;5039646;28;20044;-67
2022/12/15 11:02:35;;;;;;;31.33;17.58;;;23.20;35.20;;;;;;5057050;28;20048;-65
2022/12/15 11:05:15;;;;;;;29.83;16.77;;;23.20;35.30;;;;;;5059195;28;20485;-65
2022/12/15 11:07:52;;;;;;;38.40;19.77;;;23.20;35.30;;;;;;5059477;28;20056;-62
2022/12/15 11:10:23;;;;;;;36.53;21.35;;;23.20;35.40;;;;;;5059936;28;20060;-64
2022/12/15 11:12:59;;;;;;;40.10;21.23;;;23.30;35.30;;;;;;5064083;28;20060;-63
2022/12/15 11:15:38;;;;;;;36.30;20.25;;;23.30;35.10;;;;;;5024843;28;20462;-63
2022/12/15 11:18:28;;;;;;;38.10;21.73;;;23.30;35.00;;;;;;5060637;28;20062;-62
2022/12/15 11:21:18;;;;;;;40.47;21.85;;;23.30;34.90;;;;;;5061612;28;20044;-62
2022/12/15 11:24:21;;;;;;;35.90;22.15;;;23.30;34.70;;;;;;5064220;28;20037;-63
2022/12/15 11:27:11;;;;;;;44.42;21.85;;;23.30;34.50;;;;;;5043993;28;20504;-62
2022/12/15 11:30:09;;;;;;;31.95;20.15;;;23.30;34.40;;;;;;5059294;28;20048;-63
2022/12/15 11:32:42;;;;;;;35.67;21.10;;;23.30;34.30;;;;;;5042984;28;20040;-62
2022/12/15 11:35:14;;;;;;;36.97;20.98;;;23.30;34.30;;;;;;5042537;28;20053;-63
2022/12/15 11:37:55;;;;;;;34.10;20.05;;;23.30;34.30;;;;;;5058639;28;20118;-62
2022/12/15 11:40:40;;;;;;;33.20;19.75;;;23.30;34.30;;;;;;5061565;28;20076;-63
2022/12/15 11:43:35;;;;;;;33.47;18.92;;;23.30;34.40;;;;;;5045140;28;20083;-63
2022/12/15 11:46:17;;;;;;;31.35;18.02;;;23.30;34.40;;;;;;5057711;28;20052;-62
2022/12/15 11:49:16;;;;;;;31.05;19.63;;;23.30;34.60;;;;;;5060027;28;20127;-65
2022/12/15 11:52:02;;;;;;;28.58;17.88;;;23.30;34.50;;;;;;5048240;28;20044;-65
2022/12/15 11:54:43;;;;;;;28.95;18.83;;;23.30;34.50;;;;;;5058529;28;20416;-64
2022/12/15 11:57:51;;;;;;;34.22;18.30;;;23.30;34.60;;;;;;5059839;28;20051;-63
2022/12/15 12:00:22;;;;;;;32.42;19.00;;;23.30;35.10;;;;;;5046223;28;20057;-62
2022/12/15 12:03:00;;;;;;;32.75;18.52;;;23.30;34.50;;;;;;5052887;28;20048;-63
2022/12/15 12:06:08;;;;;;;27.25;17.38;;;23.40;34.60;;;;;;5057570;28;20057;-63
2022/12/15 12:08:57;;;;;;;31.25;19.33;;;23.40;34.50;;;;;;5048390;28;21199;-65
2022/12/15 12:11:33;;;;;;;37.20;20.33;;;23.40;34.50;;;;;;5055382;28;20049;-62
2022/12/15 12:14:41;;;;;;;32.70;17.67;;;23.30;34.50;;;;;;5059891;28;20052;-61
2022/12/15 12:17:44;;;;;;;31.23;17.77;;;23.40;34.90;;;;;;5050760;28;20579;-63
2022/12/15 12:20:22;;;;;;;30.42;18.15;;;23.40;35.10;;;;;;5061268;28;20048;-65
2022/12/15 12:23:03;;;;;;;31.20;17.17;;;23.30;35.20;;;;;;5064739;28;20098;-64
2022/12/15 12:25:34;;;;;;;31.33;17.88;;;23.40;35.30;;;;;;5059231;28;20059;-65
2022/12/15 12:28:16;;;;;;;31.92;18.90;;;23.40;35.40;;;;;;5055662;28;20044;-65
2022/12/15 12:30:46;;;;;;;28.80;17.65;;;23.40;35.40;;;;;;5061149;28;20579;-66
2022/12/15 12:33:39;;;;;;;31.38;18.17;;;23.40;35.40;;;;;;5064135;28;20053;-64
2022/12/15 12:36:11;;;;;;;25.65;17.05;;;23.40;35.50;;;;;;5048614;28;20473;-66
2022/12/15 12:38:47;;;;;;;28.42;16.77;;;23.40;35.50;;;;;;5061146;28;20178;-62
2022/12/15 12:41:45;;;;;;;31.05;17.73;;;23.40;35.50;;;;;;5064672;28;20060;-63
2022/12/15 12:44:32;;;;;;;28.75;17.60;;;23.30;35.40;;;;;;5064125;28;20051;-66
2022/12/15 12:47:14;;;;;;;31.05;18.38;;;23.40;35.70;;;;;;5061647;28;20054;-64
2022/12/15 12:49:49;;;;;;;38.00;20.70;;;23.30;35.70;;;;;;5066417;28;20091;-65
2022/12/15 12:52:28;;;;;;;43.35;21.85;;;23.40;35.80;;;;;;5064751;28;20413;-66
2022/12/15 12:55:02;;;;;;;47.72;23.10;;;23.40;35.80;;;;;;5060823;28;20416;-65
2022/12/15 12:57:39;;;;;;;38.15;20.67;;;23.40;36.00;;;;;;5059417;28;20044;-65
2022/12/15 13:00:22;;;;;;;38.80;21.30;;;23.40;35.70;;;;;;5057859;28;20059;-64
2022/12/15 13:03:18;;;;;;;37.90;21.92;;;23.40;35.70;;;;;;5061688;28;20063;-64
2022/12/15 13:05:47;;;;;;;39.70;21.73;;;23.40;35.40;;;;;;5053608;28;20055;-64
2022/12/15 13:08:45;;;;;;;35.53;20.33;;;23.40;35.10;;;;;;5059067;28;20055;-64
2022/12/15 13:11:52;;;;;;;37.55;20.08;;;23.50;35.20;;;;;;5064182;28;20040;-64
2022/12/15 13:14:43;;;;;;;37.33;19.90;;;23.50;35.30;;;;;;5062361;28;20063;-63
2022/12/15 13:17:18;;;;;;;32.58;18.60;;;23.50;35.20;;;;;;5061349;28;20105;-65
2022/12/15 13:20:15;;;;;;;34.63;19.50;;;23.50;35.50;;;;;;5061200;28;20420;-66
2022/12/15 13:22:43;;;;;;;30.30;18.25;;;23.50;35.60;;;;;;5044445;28;20053;-64
2022/12/15 13:25:37;;;;;;;31.58;18.45;;;23.50;35.70;;;;;;5063051;28;20040;-65
2022/12/15 13:28:38;;;;;;;30.02;17.65;;;23.50;35.70;;;;;;5058472;28;20052;-66
2022/12/15 13:31:26;;;;;;;33.75;18.40;;;23.60;35.70;;;;;;5041063;28;20045;-63
2022/12/15 13:34:13;;;;;;;27.23;17.38;;;23.60;35.70;;;;;;5061586;28;20060;-65
2022/12/15 13:36:44;;;;;;;32.50;16.77;;;23.60;36.20;;;;;;5052908;28;20056;-66
2022/12/15 13:39:32;;;;;;;29.30;16.83;;;23.60;35.60;;;;;;5059402;28;20477;-64
2022/12/15 13:42:26;;;;;;;30.52;18.20;;;23.60;35.50;;;;;;5058894;28;20049;-64
2022/12/15 13:45:29;;;;;;;31.23;17.83;;;23.60;35.50;;;;;;5054623;28;20464;-63
2022/12/15 13:47:57;;;;;;;29.23;16.45;;;23.50;35.40;;;;;;5059463;28;20530;-64
2022/12/15 13:50:39;;;;;;;32.03;18.50;;;23.60;35.50;;;;;;5061733;28;20045;-68
2022/12/15 13:53:14;;;;;;;30.92;18.58;;;23.60;35.30;;;;;;5057711;28;20054;-67
2022/12/15 13:55:55;;;;;;;31.52;17.75;;;23.60;35.20;;;;;;5061777;28;20241;-63
2022/12/15 13:58:23;;;;;;;29.30;17.50;;;23.60;35.10;;;;;;5061754;28;20451;-62
2022/12/15 14:00:54;;;;;;;29.33;17.83;;;23.50;35.30;;;;;;5062213;28;20045;-63
2022/12/15 14:03:21;;;;;;;28.38;17.48;;;23.60;35.70;;;;;;5060690;28;21107;-62
2022/12/15 14:05:54;;;;;;;34.92;18.23;;;23.60;36.00;;;;;;5061970;28;20048;-63
2022/12/15 14:08:24;;;;;;;27.48;16.95;;;23.60;36.10;;;;;;5056100;28;20143;-63
2022/12/15 14:10:57;;;;;;;30.00;18.13;;;23.60;36.00;;;;;;5061098;28;20052;-63
2022/12/15 14:13:32;;;;;;;30.98;17.17;;;23.60;35.90;;;;;;5053662;28;20339;-64
2022/12/15 14:16:17;;;;;;;32.53;18.48;;;23.60;35.80;;;;;;5063556;28;20099;-63
2022/12/15 14:19:08;;;;;;;31.27;18.27;;;23.60;35.80;;;;;;5057974;28;20134;-62
2022/12/15 14:21:36;;;;;;;31.30;18.45;;;23.60;35.80;;;;;;5057802;28;20052;-66
2022/12/15 14:24:21;;;;;;;29.17;18.20;;;23.60;35.70;;;;;;5059977;28;20127;-64
2022/12/15 14:27:06;;;;;;;32.15;19.02;;;23.60;35.70;;;;;;5062075;28;20136;-64
2022/12/15 14:29:33;;;;;;;33.60;18.52;;;23.60;35.60;;;;;;5060740;28;20057;-63
2022/12/15 14:32:01;;;;;;;30.40;16.65;;;23.60;35.50;;;;;;5045418;28;20040;-63
2022/12/15 14:34:34;;;;;;;31.10;16.83;;;23.60;35.60;;;;;;5064013;28;20101;-65
2022/12/15 14:37:14;;;;;;;31.33;18.02;;;23.60;35.60;;;;;;5061773;28;20139;-64
2022/12/15 14:39:45;;;;;;;30.95;17.75;;;23.60;35.60;;;;;;5060859;28;20129;-67
2022/12/15 14:42:22;;;;;;;31.35;18.05;;;23.60;35.50;;;;;;5061380;28;20048;-65
2022/12/15 14:44:50;;;;;;;31.30;17.63;;;23.60;35.50;;;;;;5057046;28;20045;-69
2022/12/15 14:47:27;;;;;;;31.88;17.80;;;23.60;35.20;;;;;;5056061;28;20057;-66
2022/12/15 14:49:57;;;;;;;30.00;17.38;;;23.60;35.30;;;;;;5055727;28;20520;-66
2022/12/15 14:52:36;;;;;;;;;;;23.60;35.30;;;;;;5061958;28;20113;-64
2022/12/15 14:55:34;;;;;;;35.17;17.63;;;23.60;35.50;;;;;;5059249;28;20814;-63
2022/12/15 14:58:30;;;;;;;30.55;17.25;;;23.60;35.50;;;;;;5043555;28;20538;-64
2022/12/15 15:01:00;;;;;;;28.58;16.85;;;23.50;35.70;;;;;;5063026;28;20408;-66
2022/12/15 15:03:36;;;;;;;28.83;16.90;;;23.60;35.90;;;;;;5044780;28;20056;-69
2022/12/15 15:06:17;;;;;;;30.05;16.08;;;23.50;35.80;;;;;;5062468;28;20144;-65
2022/12/15 15:08:49;;;;;;;27.42;16.67;;;23.60;35.60;;;;;;5065113;28;20053;-64
2022/12/15 15:11:34;;;;;;;26.75;16.20;;;23.60;35.30;;;;;;5061301;28;20052;-63
2022/12/15 15:14:11;;;;;;;26.98;17.13;;;23.60;35.10;;;;;;5062668;28;20097;-67
2022/12/15 15:16:38;;;;;;;30.15;15.77;;;23.60;34.90;;;;;;5064347;28;20044;-63
2022/12/15 15:19:06;;;;;;;29.55;17.13;;;23.60;34.90;;;;;;5061922;28;20080;-62
2022/12/15 15:21:38;;;;;;;25.98;15.77;;;23.60;35.10;;;;;;5063380;28;20055;-65
2022/12/15 15:24:28;;;;;;;25.33;15.55;;;23.60;35.20;;;;;;5060001;28;20051;-65
2022/12/15 15:27:26;;;;;;;28.17;17.02;;;23.50;35.20;;;;;;5056613;28;20040;-64
2022/12/15 15:30:12;;;;;;;26.23;15.75;;;23.50;35.40;;;;;;5060505;28;20110;-62
2022/12/15 15:32:56;;;;;;;29.15;16.15;;;23.40;35.50;;;;;;5059918;28;20056;-64